Maersk Bali — 9V7499 — position and weather

sailwx.info

Track history (hours):
 
Tides and Currents Weather Stations Pressure Air Temp Water Temp Dewpoint Dewpoint Depression Visibility Wind Speed Wind Dir Waves Ship Positions

Maersk Bali

Last reported at 2018-Feb-23 10:29 UTC. Time now 2018-Feb-24 00:41 UTC.
Position N 09°35' W 079°46'.

Length 223 m; draft 11.8 m.

Type: Ship (hazmat cat A). MMSI: 563102000.

Date/timePositionNaut miles runAvg speedWind from/ knotsBaromVisibWave heightAir tempDewpointWater temp
2018-Feb-23 10:29N 09°35' W 079°46'815.9
2018-Feb-23 10:01N 09°29' W 079°51'713.6
2018-Feb-23 09:30N 09°23' W 079°54'2 2.9
2018-Feb-23 08:58N 09°22' W 079°53'0 0.0
2018-Feb-23 08:28N 09°22' W 079°53'0 0.0
2018-Feb-23 07:58N 09°22' W 079°53'0 0.0
2018-Feb-23 07:28N 09°22' W 079°53'0 0.0
2018-Feb-23 06:58N 09°22' W 079°53'0 0.0
2018-Feb-23 06:28N 09°22' W 079°53'0 0.0
2018-Feb-23 05:58N 09°22' W 079°53'0 0.0
2018-Feb-23 05:28N 09°22' W 079°53'0 0.0
2018-Feb-23 04:58N 09°22' W 079°53'0 0.0
2018-Feb-23 04:28N 09°22' W 079°53'0 0.0
2018-Feb-23 03:58N 09°22' W 079°53'0 0.0
2018-Feb-23 03:28N 09°22' W 079°53'0 0.0
2018-Feb-23 02:58N 09°22' W 079°53'0 0.0
2018-Feb-23 02:28N 09°22' W 079°53'0 0.0
2018-Feb-23 01:58N 09°22' W 079°53'0 0.0
2018-Feb-23 01:28N 09°22' W 079°53'0 0.0
2018-Feb-23 00:58N 09°22' W 079°53'0 0.0
2018-Feb-23 00:28N 09°22' W 079°53'0 0.0
2018-Feb-22 23:58N 09°22' W 079°53'0 0.0
2018-Feb-22 23:28N 09°22' W 079°53'0 0.0
2018-Feb-22 22:58N 09°22' W 079°53'0 0.0
2018-Feb-22 22:28N 09°22' W 079°53'0 0.0
2018-Feb-22 21:58N 09°22' W 079°53'0 0.0
2018-Feb-22 21:28N 09°22' W 079°53'0 0.0
2018-Feb-22 20:58N 09°22' W 079°53'0 0.0
2018-Feb-22 20:28N 09°22' W 079°53'0 0.0
2018-Feb-22 19:58N 09°22' W 079°53'0 0.0
2018-Feb-22 19:28N 09°22' W 079°53'0 0.0
2018-Feb-22 18:58N 09°22' W 079°53'0 1.1
2018-Feb-22 18:30N 09°22' W 079°53'3 6.2
2018-Feb-22 18:00N 09°25' W 079°54'4 8.2
2018-Feb-22 17:30N 09°21' W 079°55'3 6.0
2018-Feb-22 17:00N 09°18' W 079°55'2 2.9
2018-Feb-22 16:29N 09°17' W 079°55'0 0.4
2018-Feb-22 15:59N 09°16' W 079°55'0 0.8
2018-Feb-22 15:29N 09°16' W 079°55'0 0.4
2018-Feb-22 14:59N 09°16' W 079°55'1 2.4
2018-Feb-22 14:30N 09°15' W 079°55'3 5.8
2018-Feb-22 14:00N 09°12' W 079°54'  
Track history (hours):
 
Tides and Currents Weather Stations Pressure Air Temp Water Temp Dewpoint Dewpoint Depression Visibility Wind Speed Wind Dir Waves Ship Positions

Maersk Bali

Last reported at 2018-Feb-23 10:29 UTC. Time now 2018-Feb-24 00:41 UTC.
Position N 09°35' W 079°46'.

Length 223 m; draft 11.8 m.

Type: Ship (hazmat cat A). MMSI: 563102000.

Date/timePositionNaut miles runAvg speedWind from/ knotsBaromVisibWave heightAir tempDewpointWater temp
2018-Feb-23 10:29N 09°35' W 079°46'815.9
2018-Feb-23 10:01N 09°29' W 079°51'713.6
2018-Feb-23 09:30N 09°23' W 079°54'2 2.9
2018-Feb-23 08:58N 09°22' W 079°53'0 0.0
2018-Feb-23 08:28N 09°22' W 079°53'0 0.0
2018-Feb-23 07:58N 09°22' W 079°53'0 0.0
2018-Feb-23 07:28N 09°22' W 079°53'0 0.0
2018-Feb-23 06:58N 09°22' W 079°53'0 0.0
2018-Feb-23 06:28N 09°22' W 079°53'0 0.0
2018-Feb-23 05:58N 09°22' W 079°53'0 0.0
2018-Feb-23 05:28N 09°22' W 079°53'0 0.0
2018-Feb-23 04:58N 09°22' W 079°53'0 0.0
2018-Feb-23 04:28N 09°22' W 079°53'0 0.0
2018-Feb-23 03:58N 09°22' W 079°53'0 0.0
2018-Feb-23 03:28N 09°22' W 079°53'0 0.0
2018-Feb-23 02:58N 09°22' W 079°53'0 0.0
2018-Feb-23 02:28N 09°22' W 079°53'0 0.0
2018-Feb-23 01:58N 09°22' W 079°53'0 0.0
2018-Feb-23 01:28N 09°22' W 079°53'0 0.0
2018-Feb-23 00:58N 09°22' W 079°53'0 0.0
2018-Feb-23 00:28N 09°22' W 079°53'0 0.0
2018-Feb-22 23:58N 09°22' W 079°53'0 0.0
2018-Feb-22 23:28N 09°22' W 079°53'0 0.0
2018-Feb-22 22:58N 09°22' W 079°53'0 0.0
2018-Feb-22 22:28N 09°22' W 079°53'0 0.0
2018-Feb-22 21:58N 09°22' W 079°53'0 0.0
2018-Feb-22 21:28N 09°22' W 079°53'0 0.0
2018-Feb-22 20:58N 09°22' W 079°53'0 0.0
2018-Feb-22 20:28N 09°22' W 079°53'0 0.0
2018-Feb-22 19:58N 09°22' W 079°53'0 0.0
2018-Feb-22 19:28N 09°22' W 079°53'0 0.0
2018-Feb-22 18:58N 09°22' W 079°53'0 1.1
2018-Feb-22 18:30N 09°22' W 079°53'3 6.2
2018-Feb-22 18:00N 09°25' W 079°54'4 8.2
2018-Feb-22 17:30N 09°21' W 079°55'3 6.0
2018-Feb-22 17:00N 09°18' W 079°55'2 2.9
2018-Feb-22 16:29N 09°17' W 079°55'0 0.4
2018-Feb-22 15:59N 09°16' W 079°55'0 0.8
2018-Feb-22 15:29N 09°16' W 079°55'0 0.4
2018-Feb-22 14:59N 09°16' W 079°55'1 2.4
2018-Feb-22 14:30N 09°15' W 079°55'3 5.8
2018-Feb-22 14:00N 09°12' W 079°54'  

Dump ship's entire track history